createdAt,value
2018-07-08T00:00:40.288Z,55.00
2018-07-08T00:05:37.720Z,55.20
2018-07-08T00:08:06.572Z,55.30
2018-07-08T00:10:38.301Z,55.50
2018-07-08T00:15:36.708Z,55.80
2018-07-08T00:18:05.470Z,55.70
2018-07-08T00:20:34.387Z,55.70
2018-07-08T00:25:31.699Z,56.00
2018-07-08T00:28:00.515Z,55.90
2018-07-08T00:30:29.300Z,55.90
2018-07-08T00:32:58.134Z,55.80
2018-07-08T00:35:26.849Z,55.90
2018-07-08T00:37:55.619Z,56.10
2018-07-08T00:40:24.365Z,56.30
2018-07-08T00:42:53.552Z,56.50
2018-07-08T00:45:22.268Z,56.50
2018-07-08T00:50:19.573Z,56.30
2018-07-08T00:52:48.394Z,56.40
2018-07-08T00:55:17.186Z,56.40
2018-07-08T00:57:45.980Z,56.50
2018-07-08T01:00:29.692Z,56.60
2018-07-08T01:02:59.641Z,56.60
2018-07-08T01:05:28.877Z,56.60
2018-07-08T01:07:57.661Z,56.70
2018-07-08T01:10:26.974Z,56.80
2018-07-08T01:12:56.338Z,56.70
2018-07-08T01:15:25.414Z,56.60
2018-07-08T01:17:54.250Z,56.60
2018-07-08T01:20:23.513Z,56.60
2018-07-08T01:22:53.327Z,56.70
2018-07-08T01:25:33.825Z,56.60
2018-07-08T01:28:02.831Z,57.00
2018-07-08T01:30:31.634Z,57.20
2018-07-08T01:33:00.395Z,57.20
2018-07-08T01:35:29.248Z,57.10
2018-07-08T01:37:58.045Z,57.30
2018-07-08T01:40:26.971Z,57.50
2018-07-08T01:42:55.790Z,57.70
2018-07-08T01:45:24.755Z,57.80
2018-07-08T01:47:53.748Z,57.80
2018-07-08T01:50:22.523Z,58.00
2018-07-08T01:55:19.904Z,58.30
2018-07-08T01:57:48.795Z,58.20
2018-07-08T02:05:14.801Z,58.30
2018-07-08T02:07:43.757Z,58.40
2018-07-08T02:10:12.549Z,58.60
2018-07-08T02:12:41.303Z,58.60
2018-07-08T02:15:10.178Z,58.70
2018-07-08T02:17:39.017Z,59.50
2018-07-08T02:20:08.240Z,58.80
2018-07-08T02:22:37.286Z,58.90
2018-07-08T02:27:34.705Z,58.80
2018-07-08T02:30:03.564Z,58.80
2018-07-08T02:32:32.671Z,58.90
2018-07-08T02:35:01.490Z,59.20
2018-07-08T02:37:30.451Z,59.10
2018-07-08T02:39:59.228Z,59.10
2018-07-08T02:42:28.036Z,59.30
2018-07-08T02:44:56.779Z,59.30
2018-07-08T02:47:25.647Z,59.50
2018-07-08T02:49:54.517Z,59.60
2018-07-08T02:52:23.608Z,59.70
2018-07-08T02:54:52.387Z,59.80
2018-07-08T02:57:21.275Z,60.00
2018-07-08T02:59:49.975Z,60.00
2018-07-08T03:02:18.774Z,60.40
2018-07-08T03:04:47.747Z,59.90
2018-07-08T03:07:16.556Z,59.90
2018-07-08T03:09:45.407Z,60.00
2018-07-08T03:12:14.271Z,60.20
2018-07-08T03:14:43.125Z,60.40
2018-07-08T03:17:11.988Z,60.30
2018-07-08T03:22:09.308Z,60.70
2018-07-08T03:24:38.106Z,61.00
2018-07-08T03:27:07.249Z,61.10
2018-07-08T03:29:36.009Z,61.10
2018-07-08T03:32:04.877Z,60.80
2018-07-08T03:34:33.725Z,60.60
2018-07-08T03:41:59.928Z,60.20
2018-07-08T03:44:28.730Z,60.60
2018-07-08T03:46:57.514Z,61.00
2018-07-08T03:54:28.703Z,61.00
2018-07-08T03:56:57.622Z,61.00
2018-07-08T04:01:55.043Z,61.00
2018-07-08T04:04:23.844Z,61.00
2018-07-08T04:06:52.584Z,61.00
2018-07-08T04:09:21.799Z,61.00
2018-07-08T04:11:50.528Z,61.30
2018-07-08T04:14:19.351Z,61.70
2018-07-08T04:16:48.199Z,61.80
2018-07-08T04:19:16.977Z,61.60
2018-07-08T04:21:45.801Z,61.70
2018-07-08T04:24:14.646Z,61.70
2018-07-08T04:26:43.508Z,61.60
2018-07-08T04:29:12.324Z,61.80
2018-07-08T04:31:41.086Z,61.80
2018-07-08T04:34:10.432Z,61.80
2018-07-08T04:36:39.233Z,61.90
2018-07-08T04:39:08.905Z,61.70
2018-07-08T04:41:37.800Z,61.70
2018-07-08T04:44:06.592Z,61.60
2018-07-08T04:46:35.473Z,61.70
2018-07-08T04:49:04.292Z,61.70
2018-07-08T04:51:33.085Z,61.80
2018-07-08T04:54:01.882Z,62.00
2018-07-08T04:56:30.683Z,62.00
2018-07-08T04:58:59.428Z,62.20
2018-07-08T05:01:28.242Z,62.30
2018-07-08T05:03:57.018Z,62.40
2018-07-08T05:06:25.784Z,62.50
2018-07-08T05:08:54.634Z,62.40
2018-07-08T05:11:23.431Z,62.30
2018-07-08T05:13:52.813Z,62.30
2018-07-08T05:16:21.555Z,62.20
2018-07-08T05:18:51.305Z,62.40
2018-07-08T05:21:20.089Z,62.50
2018-07-08T05:23:48.848Z,62.50
2018-07-08T05:26:17.603Z,62.50
2018-07-08T05:28:46.374Z,62.60
2018-07-08T05:31:15.117Z,62.70
2018-07-08T05:33:43.928Z,62.70
2018-07-08T05:36:13.000Z,62.70
2018-07-08T05:41:10.364Z,62.60
2018-07-08T05:43:39.250Z,62.80
2018-07-08T05:46:08.315Z,62.50
2018-07-08T05:48:37.091Z,62.40
2018-07-08T05:51:05.896Z,62.60
2018-07-08T05:58:31.772Z,63.00
2018-07-08T06:01:00.561Z,62.90
2018-07-08T06:03:29.500Z,62.80
2018-07-08T06:05:58.336Z,62.70
2018-07-08T06:08:27.112Z,62.50
2018-07-08T06:13:24.591Z,62.60
2018-07-08T06:18:21.843Z,62.80
2018-07-08T06:20:50.725Z,62.80
2018-07-08T06:23:19.613Z,62.80
2018-07-08T06:25:48.707Z,62.80
2018-07-08T06:28:17.595Z,63.00
2018-07-08T06:30:46.907Z,63.60
2018-07-08T06:33:15.831Z,63.80
2018-07-08T06:35:44.685Z,64.00
2018-07-08T06:38:14.176Z,64.20
2018-07-08T06:40:42.970Z,64.40
2018-07-08T06:43:11.935Z,64.60
2018-07-08T06:45:41.493Z,64.40
2018-07-08T06:48:10.516Z,64.80
2018-07-08T06:50:39.289Z,63.80
2018-07-08T06:55:36.670Z,64.30
2018-07-08T06:58:05.454Z,64.60
2018-07-08T07:03:02.665Z,64.40
2018-07-08T07:05:31.693Z,64.20
2018-07-08T07:08:00.442Z,64.50
2018-07-08T07:10:30.153Z,64.50
2018-07-08T07:12:59.226Z,64.30
2018-07-08T07:15:28.086Z,64.30
2018-07-08T07:17:56.821Z,64.10
2018-07-08T07:23:00.878Z,64.10
2018-07-08T07:25:29.664Z,64.20
2018-07-08T07:27:58.496Z,64.10
2018-07-08T07:32:55.886Z,63.70
2018-07-08T07:35:24.662Z,63.70
2018-07-08T07:40:22.011Z,63.60
2018-07-08T07:42:50.981Z,63.80
2018-07-08T07:45:19.807Z,63.80
2018-07-08T07:47:48.741Z,63.80
2018-07-08T07:50:17.682Z,63.90
2018-07-08T07:52:46.501Z,64.40
2018-07-08T07:55:15.289Z,64.20
2018-07-08T07:57:44.147Z,63.70
2018-07-08T08:00:13.344Z,63.50
2018-07-08T08:02:42.276Z,63.60
2018-07-08T08:05:11.302Z,63.60
2018-07-08T08:07:40.221Z,63.80
2018-07-08T08:10:09.226Z,63.70
2018-07-08T08:12:38.679Z,63.90
2018-07-08T08:15:07.712Z,64.10
2018-07-08T08:17:36.472Z,64.10
2018-07-08T08:20:05.428Z,63.90
2018-07-08T08:22:34.224Z,64.00
2018-07-08T08:25:03.336Z,64.10
2018-07-08T08:27:32.256Z,63.90
2018-07-08T08:30:01.799Z,63.80
2018-07-08T08:37:32.611Z,63.90
2018-07-08T08:40:01.595Z,64.10
2018-07-08T08:42:30.552Z,64.10
2018-07-08T08:44:59.779Z,64.50
2018-07-08T08:47:29.319Z,64.40
2018-07-08T08:49:58.261Z,64.50
2018-07-08T09:02:22.405Z,64.50
2018-07-08T09:07:20.847Z,64.90
2018-07-08T09:09:49.715Z,64.20
2018-07-08T09:12:18.540Z,64.20
2018-07-08T09:14:47.334Z,64.00
2018-07-08T09:17:16.108Z,63.90
2018-07-08T09:19:44.908Z,64.10
2018-07-08T09:22:13.628Z,64.20
2018-07-08T09:24:42.367Z,64.20
2018-07-08T09:27:11.136Z,64.20
2018-07-08T09:29:39.876Z,64.70
2018-07-08T09:32:08.676Z,64.50
2018-07-08T09:34:37.399Z,64.60
2018-07-08T09:39:41.347Z,64.50
2018-07-08T09:42:10.355Z,64.60
2018-07-08T09:44:39.147Z,64.60
2018-07-08T09:47:07.981Z,65.00
2018-07-08T09:54:33.896Z,64.90
2018-07-08T09:57:02.680Z,64.80
2018-07-08T09:59:31.523Z,64.50
2018-07-08T10:02:00.293Z,64.50
2018-07-08T10:04:29.157Z,64.40
2018-07-08T10:06:57.959Z,64.50
2018-07-08T10:09:26.672Z,64.30
2018-07-08T10:14:24.790Z,63.80
2018-07-08T10:16:53.533Z,63.40
2018-07-08T10:19:22.365Z,63.40
2018-07-08T10:21:51.103Z,63.30
2018-07-08T10:24:19.999Z,63.40
2018-07-08T10:26:59.558Z,63.50
2018-07-08T10:31:56.817Z,63.70
2018-07-08T10:34:25.667Z,63.80
2018-07-08T10:36:54.666Z,64.00
2018-07-08T10:39:23.445Z,63.80
2018-07-08T10:41:52.236Z,63.60
2018-07-08T10:44:21.095Z,63.30
2018-07-08T10:46:49.879Z,63.10
2018-07-08T10:49:18.752Z,62.80
2018-07-08T10:54:16.163Z,62.70
2018-07-08T10:56:44.966Z,62.70
2018-07-08T10:59:13.836Z,63.00
2018-07-08T11:01:42.655Z,63.10
2018-07-08T11:06:40.020Z,63.20
2018-07-08T11:09:08.852Z,63.10
2018-07-08T11:11:37.650Z,63.30
2018-07-08T11:14:06.456Z,63.40
2018-07-08T11:16:35.431Z,63.40
2018-07-08T11:21:32.869Z,63.10
2018-07-08T11:24:01.714Z,63.40
2018-07-08T11:26:30.713Z,63.50
2018-07-08T11:28:59.506Z,63.40
2018-07-08T11:31:28.309Z,63.40
2018-07-08T11:33:57.148Z,63.50
2018-07-08T11:36:26.048Z,63.30
2018-07-08T11:41:23.582Z,63.60
2018-07-08T11:43:52.308Z,63.70
2018-07-08T11:48:49.674Z,63.70
2018-07-08T11:51:18.508Z,63.40
2018-07-08T11:53:47.293Z,63.20
2018-07-08T11:56:16.048Z,63.50
2018-07-08T11:58:44.903Z,63.90
2018-07-08T12:01:13.909Z,64.30
2018-07-08T12:03:42.790Z,64.50
2018-07-08T12:06:11.761Z,65.00
2018-07-08T12:08:40.518Z,65.20
2018-07-08T12:11:09.272Z,65.30
2018-07-08T12:13:38.064Z,65.30
2018-07-08T12:16:06.846Z,65.50
2018-07-08T12:18:35.747Z,65.40
2018-07-08T12:21:04.692Z,65.30
2018-07-08T12:23:33.824Z,64.90
2018-07-08T12:26:02.631Z,64.60
2018-07-08T12:28:31.593Z,65.30
2018-07-08T12:31:00.456Z,64.60
2018-07-08T12:33:29.307Z,64.20
2018-07-08T12:35:58.147Z,64.70
2018-07-08T12:38:26.912Z,64.40
2018-07-08T12:43:24.195Z,64.60
2018-07-08T12:45:53.102Z,64.30
2018-07-08T12:48:21.863Z,64.40
2018-07-08T12:50:50.978Z,63.90
2018-07-08T12:53:19.859Z,63.80
2018-07-08T12:55:48.647Z,63.70
2018-07-08T12:58:17.437Z,63.70
2018-07-08T13:00:46.401Z,63.20
2018-07-08T13:03:15.237Z,62.30
2018-07-08T13:05:43.992Z,62.00
2018-07-08T13:08:12.809Z,62.10
2018-07-08T13:10:41.609Z,61.80
2018-07-08T13:13:10.468Z,61.90
2018-07-08T13:15:39.215Z,61.80
2018-07-08T13:18:08.134Z,61.80
2018-07-08T13:20:36.991Z,61.70
2018-07-08T13:23:05.750Z,61.70
2018-07-08T13:25:34.667Z,61.40
2018-07-08T13:28:03.465Z,61.20
2018-07-08T13:30:32.268Z,61.10
2018-07-08T13:33:01.098Z,60.90
2018-07-08T13:35:29.884Z,59.70
2018-07-08T13:37:58.899Z,59.90
2018-07-08T13:40:27.756Z,59.70
2018-07-08T13:42:56.621Z,59.40
2018-07-08T13:45:25.371Z,59.10
2018-07-08T13:47:54.175Z,59.50
2018-07-08T13:50:23.013Z,58.90
2018-07-08T13:55:20.292Z,59.20
2018-07-08T13:57:49.111Z,59.50
2018-07-08T14:00:17.911Z,59.50
2018-07-08T14:02:46.713Z,59.40
2018-07-08T14:05:15.545Z,59.30
2018-07-08T14:12:41.326Z,59.40
2018-07-08T14:15:10.115Z,58.60
2018-07-08T14:17:38.988Z,58.30
2018-07-08T14:20:07.836Z,58.30
2018-07-08T14:22:36.501Z,58.20
2018-07-08T14:25:05.363Z,58.10
2018-07-08T14:27:34.121Z,58.00
2018-07-08T14:32:31.452Z,58.30
2018-07-08T14:35:00.330Z,57.40
2018-07-08T14:37:29.181Z,57.40
2018-07-08T14:42:26.369Z,57.20
2018-07-08T14:44:55.323Z,56.60
2018-07-08T14:47:24.109Z,56.30
2018-07-08T14:49:52.899Z,56.40
2018-07-08T14:52:21.768Z,55.80
2018-07-08T14:54:50.511Z,56.10
2018-07-08T14:57:19.286Z,55.90
2018-07-08T14:59:48.110Z,55.50
2018-07-08T15:02:17.055Z,55.50
2018-07-08T15:04:46.140Z,55.30
2018-07-08T15:09:43.347Z,54.60
2018-07-08T15:12:12.148Z,54.30
2018-07-08T15:14:40.906Z,53.90
2018-07-08T15:17:09.750Z,53.90
2018-07-08T15:19:38.512Z,53.60
2018-07-08T15:22:07.495Z,53.60
2018-07-08T15:24:36.395Z,53.70
2018-07-08T15:27:05.222Z,53.90
2018-07-08T15:29:33.980Z,54.10
2018-07-08T15:32:02.753Z,53.90
2018-07-08T15:34:31.532Z,53.80
2018-07-08T15:41:57.744Z,53.00
2018-07-08T15:44:26.535Z,53.20
2018-07-08T15:46:55.678Z,52.90
2018-07-08T15:49:24.472Z,52.70
2018-07-08T15:51:53.215Z,52.70
2018-07-08T15:54:22.671Z,51.60
2018-07-08T15:56:51.573Z,51.80
2018-07-08T15:59:20.561Z,51.90
2018-07-08T16:01:49.378Z,51.80
2018-07-08T16:04:18.133Z,51.80
2018-07-08T16:09:15.537Z,51.80
2018-07-08T16:11:44.489Z,51.90
2018-07-08T16:14:13.338Z,50.80
2018-07-08T16:16:42.124Z,51.30
2018-07-08T16:19:10.892Z,50.60
2018-07-08T16:21:39.715Z,49.60
2018-07-08T16:24:08.472Z,48.90
2018-07-08T16:26:37.531Z,48.90
2018-07-08T16:31:34.739Z,48.90
2018-07-08T16:34:03.596Z,48.80
2018-07-08T16:36:32.415Z,49.30
2018-07-08T16:39:01.407Z,49.30
2018-07-08T16:41:30.284Z,49.30
2018-07-08T16:43:59.047Z,49.70
2018-07-08T16:48:56.592Z,50.00
2018-07-08T16:51:25.427Z,49.40
2018-07-08T16:53:54.242Z,48.90
2018-07-08T16:56:23.134Z,48.70
2018-07-08T16:58:51.817Z,48.60
2018-07-08T17:01:20.616Z,48.90
2018-07-08T17:03:49.422Z,49.00
2018-07-08T17:06:18.219Z,48.60
2018-07-08T17:08:47.080Z,48.70
2018-07-08T17:11:15.993Z,48.00
2018-07-08T17:13:44.782Z,47.90
2018-07-08T17:16:13.573Z,47.40
2018-07-08T17:18:42.384Z,47.50
2018-07-08T17:21:11.184Z,47.50
2018-07-08T17:23:40.090Z,47.60
2018-07-08T17:31:06.019Z,46.90
2018-07-08T17:33:34.910Z,47.70
2018-07-08T17:36:03.709Z,47.80
2018-07-08T17:38:32.740Z,47.90
2018-07-08T17:41:01.696Z,48.00
2018-07-08T17:43:30.905Z,47.90
2018-07-08T17:45:59.687Z,48.10
2018-07-08T17:50:57.531Z,46.80
2018-07-08T17:53:26.376Z,46.00
2018-07-08T17:58:23.677Z,44.90
2018-07-08T18:00:52.555Z,45.20
2018-07-08T18:03:21.301Z,44.80
2018-07-08T18:05:50.197Z,44.40
2018-07-08T18:08:19.006Z,44.40
2018-07-08T18:13:17.020Z,44.50
2018-07-08T18:15:45.765Z,44.50
2018-07-08T18:18:14.699Z,44.80
2018-07-08T18:20:43.500Z,45.10
2018-07-08T18:23:12.287Z,44.10
2018-07-08T18:25:41.102Z,44.20
2018-07-08T18:28:09.947Z,43.70
2018-07-08T18:30:39.047Z,43.30
2018-07-08T18:33:07.779Z,43.80
2018-07-08T18:35:36.578Z,43.60
2018-07-08T18:38:05.374Z,43.60
2018-07-08T18:40:34.186Z,43.70
2018-07-08T18:43:02.935Z,43.30
2018-07-08T18:45:31.694Z,43.10
2018-07-08T18:48:00.497Z,43.10
2018-07-08T18:50:29.256Z,43.50
2018-07-08T18:52:58.039Z,44.00
2018-07-08T18:55:26.776Z,44.40
2018-07-08T18:57:55.606Z,44.80
2018-07-08T19:00:24.387Z,44.80
2018-07-08T19:02:53.232Z,44.90
2018-07-08T19:05:22.219Z,45.10
2018-07-08T19:07:50.975Z,45.30
2018-07-08T19:10:19.725Z,45.60
2018-07-08T19:12:48.582Z,45.70
2018-07-08T19:15:17.487Z,45.80
2018-07-08T19:17:46.423Z,46.10
2018-07-08T19:22:43.756Z,46.20
2018-07-08T19:25:12.573Z,46.30
2018-07-08T19:27:41.324Z,46.40
2018-07-08T19:30:10.073Z,46.60
2018-07-08T19:32:39.418Z,46.60
2018-07-08T19:35:08.311Z,46.70
2018-07-08T19:37:37.071Z,46.70
2018-07-08T19:40:05.870Z,46.80
2018-07-08T19:42:34.688Z,47.20
2018-07-08T19:45:03.462Z,47.40
2018-07-08T19:47:32.321Z,47.60
2018-07-08T19:52:29.677Z,48.10
2018-07-08T19:57:26.911Z,48.50
2018-07-08T19:59:55.762Z,48.60
2018-07-08T20:02:24.529Z,48.70
2018-07-08T20:04:53.302Z,48.70
2018-07-08T20:07:22.106Z,48.80
2018-07-08T20:12:19.831Z,49.00
2018-07-08T20:14:48.571Z,49.20
2018-07-08T20:17:17.406Z,49.40
2018-07-08T20:19:46.152Z,49.50
2018-07-08T20:22:14.949Z,49.50
2018-07-08T20:24:43.963Z,49.60
2018-07-08T20:27:12.722Z,49.70
2018-07-08T20:32:10.133Z,49.80
2018-07-08T20:34:38.904Z,49.80
2018-07-08T20:37:07.827Z,49.90
2018-07-08T20:39:36.554Z,49.90
2018-07-08T20:42:05.289Z,49.90
2018-07-08T20:44:34.076Z,50.00
2018-07-08T20:47:02.806Z,50.00
2018-07-08T20:49:31.577Z,50.10
2018-07-08T20:52:00.335Z,50.10
2018-07-08T20:54:29.107Z,50.30
2018-07-08T20:56:57.998Z,50.40
2018-07-08T20:59:26.865Z,50.40
2018-07-08T21:04:24.070Z,50.50
2018-07-08T21:06:52.847Z,50.50
2018-07-08T21:09:22.164Z,50.60
2018-07-08T21:11:51.474Z,50.80
2018-07-08T21:14:20.339Z,50.90
2018-07-08T21:19:17.565Z,51.20
2018-07-08T21:21:46.456Z,51.20
2018-07-08T21:24:15.927Z,51.40
2018-07-08T21:26:44.862Z,51.50
2018-07-08T21:29:13.693Z,51.70
2018-07-08T21:34:17.836Z,51.90
2018-07-08T21:36:46.750Z,52.10
2018-07-08T21:39:15.664Z,52.30
2018-07-08T21:41:44.476Z,53.00
2018-07-08T21:44:13.623Z,52.30
2018-07-08T21:46:42.488Z,52.30
2018-07-08T21:49:11.365Z,52.30
2018-07-08T21:51:40.169Z,52.30
2018-07-08T21:54:08.955Z,52.20
2018-07-08T21:56:37.768Z,52.20
2018-07-08T21:59:06.489Z,52.30
2018-07-08T22:01:44.552Z,52.30
2018-07-08T22:04:13.358Z,52.30
2018-07-08T22:06:42.056Z,52.50
2018-07-08T22:09:10.965Z,52.40
2018-07-08T22:11:39.753Z,52.50
2018-07-08T22:14:08.631Z,52.60
2018-07-08T22:16:37.414Z,52.60
2018-07-08T22:19:06.356Z,52.60
2018-07-08T22:21:35.230Z,52.40
2018-07-08T22:26:33.205Z,52.50
2018-07-08T22:29:02.194Z,52.50
2018-07-08T22:31:31.011Z,52.30
2018-07-08T22:33:59.801Z,52.30
2018-07-08T22:38:57.111Z,52.20
2018-07-08T22:41:25.853Z,52.20
2018-07-08T22:46:23.459Z,52.00
2018-07-08T22:48:52.238Z,52.10
2018-07-08T22:51:21.228Z,52.20
2018-07-08T22:53:50.124Z,52.20
2018-07-08T22:56:19.035Z,52.10
2018-07-08T22:58:47.811Z,52.10
2018-07-08T23:01:28.335Z,52.10
2018-07-08T23:03:59.212Z,52.30
2018-07-08T23:06:27.971Z,52.30
2018-07-08T23:08:57.056Z,52.30
2018-07-08T23:11:26.512Z,52.60
2018-07-08T23:13:56.180Z,52.70
2018-07-08T23:21:23.047Z,53.00
2018-07-08T23:23:51.932Z,52.90
2018-07-08T23:26:20.920Z,52.80
2018-07-08T23:28:49.709Z,52.70
2018-07-08T23:31:18.471Z,52.80
2018-07-08T23:33:47.567Z,52.80
2018-07-08T23:36:16.448Z,53.00
2018-07-08T23:38:45.368Z,53.40
2018-07-08T23:41:14.103Z,53.70
2018-07-08T23:43:42.914Z,53.90
2018-07-08T23:46:11.837Z,54.00
2018-07-08T23:48:40.650Z,54.10
2018-07-08T23:53:37.935Z,53.90
2018-07-08T23:56:06.709Z,53.80
2018-07-08T23:58:35.617Z,53.80
